sensor_id;sensor_type;location;lat;lon;timestamp;P1;durP1;ratioP1;P2;durP2;ratioP2
45077;SDS011;60508;42.622;25.416;2023-12-04T00:01:00;7.03;;;3.40;;
45077;SDS011;60508;42.622;25.416;2023-12-04T00:03:27;4.35;;;2.78;;
45077;SDS011;60508;42.622;25.416;2023-12-04T00:06:04;3.03;;;2.42;;
45077;SDS011;60508;42.622;25.416;2023-12-04T00:08:32;4.45;;;3.17;;
45077;SDS011;60508;42.622;25.416;2023-12-04T00:10:59;0.75;;;0.75;;
45077;SDS011;60508;42.622;25.416;2023-12-04T00:13:26;1.17;;;0.88;;
45077;SDS011;60508;42.622;25.416;2023-12-04T00:15:52;1.45;;;1.30;;
45077;SDS011;60508;42.622;25.416;2023-12-04T00:18:29;2.30;;;2.15;;
45077;SDS011;60508;42.622;25.416;2023-12-04T00:20:56;3.60;;;2.78;;
45077;SDS011;60508;42.622;25.416;2023-12-04T00:23:23;1.83;;;1.73;;
45077;SDS011;60508;42.622;25.416;2023-12-04T00:26:01;1.52;;;1.40;;
45077;SDS011;60508;42.622;25.416;2023-12-04T00:28:29;1.13;;;1.02;;
45077;SDS011;60508;42.622;25.416;2023-12-04T00:30:56;1.80;;;1.02;;
45077;SDS011;60508;42.622;25.416;2023-12-04T00:33:22;1.33;;;1.23;;
45077;SDS011;60508;42.622;25.416;2023-12-04T00:35:49;1.30;;;1.20;;
45077;SDS011;60508;42.622;25.416;2023-12-04T00:38:16;1.65;;;1.55;;
45077;SDS011;60508;42.622;25.416;2023-12-04T00:40:42;3.00;;;1.30;;
45077;SDS011;60508;42.622;25.416;2023-12-04T00:43:20;1.88;;;1.33;;
45077;SDS011;60508;42.622;25.416;2023-12-04T00:45:47;2.30;;;1.80;;
45077;SDS011;60508;42.622;25.416;2023-12-04T00:48:13;1.33;;;1.23;;
45077;SDS011;60508;42.622;25.416;2023-12-04T00:50:50;2.13;;;1.80;;
45077;SDS011;60508;42.622;25.416;2023-12-04T00:53:18;2.27;;;1.77;;
45077;SDS011;60508;42.622;25.416;2023-12-04T00:55:44;1.90;;;1.70;;
45077;SDS011;60508;42.622;25.416;2023-12-04T00:58:11;2.90;;;2.03;;
45077;SDS011;60508;42.622;25.416;2023-12-04T01:00:49;1.90;;;1.80;;
45077;SDS011;60508;42.622;25.416;2023-12-04T01:03:18;3.08;;;1.95;;
45077;SDS011;60508;42.622;25.416;2023-12-04T01:05:44;2.45;;;2.00;;
45077;SDS011;60508;42.622;25.416;2023-12-04T01:08:31;1.70;;;1.60;;
45077;SDS011;60508;42.622;25.416;2023-12-04T01:11:09;2.50;;;1.97;;
45077;SDS011;60508;42.622;25.416;2023-12-04T01:13:36;1.85;;;1.50;;
45077;SDS011;60508;42.622;25.416;2023-12-04T01:16:03;4.85;;;1.67;;
45077;SDS011;60508;42.622;25.416;2023-12-04T01:18:41;2.83;;;2.17;;
45077;SDS011;60508;42.622;25.416;2023-12-04T01:21:08;2.45;;;1.88;;
45077;SDS011;60508;42.622;25.416;2023-12-04T01:23:36;2.42;;;1.95;;
45077;SDS011;60508;42.622;25.416;2023-12-04T01:26:15;1.98;;;1.80;;
45077;SDS011;60508;42.622;25.416;2023-12-04T01:28:43;3.33;;;2.20;;
45077;SDS011;60508;42.622;25.416;2023-12-04T01:31:09;2.30;;;2.10;;
45077;SDS011;60508;42.622;25.416;2023-12-04T01:33:47;2.72;;;1.67;;
45077;SDS011;60508;42.622;25.416;2023-12-04T01:36:14;1.83;;;1.73;;
45077;SDS011;60508;42.622;25.416;2023-12-04T01:38:41;1.65;;;1.55;;
45077;SDS011;60508;42.622;25.416;2023-12-04T01:41:18;2.25;;;1.70;;
45077;SDS011;60508;42.622;25.416;2023-12-04T01:43:45;2.35;;;1.77;;
45077;SDS011;60508;42.622;25.416;2023-12-04T01:46:12;1.95;;;1.85;;
45077;SDS011;60508;42.622;25.416;2023-12-04T01:48:41;2.75;;;1.83;;
45077;SDS011;60508;42.622;25.416;2023-12-04T01:51:09;3.83;;;1.38;;
45077;SDS011;60508;42.622;25.416;2023-12-04T01:53:38;2.60;;;1.83;;
45077;SDS011;60508;42.622;25.416;2023-12-04T01:56:06;2.47;;;2.28;;
45077;SDS011;60508;42.622;25.416;2023-12-04T01:58:34;2.15;;;1.95;;
45077;SDS011;60508;42.622;25.416;2023-12-04T02:01:07;2.22;;;2.03;;
45077;SDS011;60508;42.622;25.416;2023-12-04T02:03:36;4.13;;;2.10;;
45077;SDS011;60508;42.622;25.416;2023-12-04T02:06:03;2.25;;;1.92;;
45077;SDS011;60508;42.622;25.416;2023-12-04T02:08:42;6.30;;;2.55;;
45077;SDS011;60508;42.622;25.416;2023-12-04T02:11:09;2.15;;;1.95;;
45077;SDS011;60508;42.622;25.416;2023-12-04T02:13:36;1.70;;;1.60;;
45077;SDS011;60508;42.622;25.416;2023-12-04T02:16:04;2.90;;;2.40;;
45077;SDS011;60508;42.622;25.416;2023-12-04T02:18:35;2.72;;;2.53;;
45077;SDS011;60508;42.622;25.416;2023-12-04T02:21:13;5.13;;;2.90;;
45077;SDS011;60508;42.622;25.416;2023-12-04T02:23:39;3.00;;;2.80;;
45077;SDS011;60508;42.622;25.416;2023-12-04T02:26:10;4.22;;;2.67;;
45077;SDS011;60508;42.622;25.416;2023-12-04T02:28:46;3.85;;;2.70;;
45077;SDS011;60508;42.622;25.416;2023-12-04T02:31:20;4.20;;;2.88;;
45077;SDS011;60508;42.622;25.416;2023-12-04T02:33:52;3.10;;;2.78;;
45077;SDS011;60508;42.622;25.416;2023-12-04T02:36:22;4.13;;;3.47;;
45077;SDS011;60508;42.622;25.416;2023-12-04T02:38:51;3.58;;;3.28;;
45077;SDS011;60508;42.622;25.416;2023-12-04T02:41:19;2.92;;;2.60;;
45077;SDS011;60508;42.622;25.416;2023-12-04T02:43:46;3.95;;;2.70;;
45077;SDS011;60508;42.622;25.416;2023-12-04T02:46:13;5.35;;;2.50;;
45077;SDS011;60508;42.622;25.416;2023-12-04T02:48:48;4.80;;;2.72;;
45077;SDS011;60508;42.622;25.416;2023-12-04T02:51:15;3.55;;;3.08;;
45077;SDS011;60508;42.622;25.416;2023-12-04T02:53:41;5.72;;;2.60;;
45077;SDS011;60508;42.622;25.416;2023-12-04T02:56:18;3.38;;;3.08;;
45077;SDS011;60508;42.622;25.416;2023-12-04T02:58:45;6.32;;;3.20;;
45077;SDS011;60508;42.622;25.416;2023-12-04T03:01:12;4.85;;;3.55;;
45077;SDS011;60508;42.622;25.416;2023-12-04T03:03:42;4.00;;;3.38;;
45077;SDS011;60508;42.622;25.416;2023-12-04T03:06:09;3.30;;;2.92;;
45077;SDS011;60508;42.622;25.416;2023-12-04T03:08:35;4.75;;;3.80;;
45077;SDS011;60508;42.622;25.416;2023-12-04T03:11:12;5.22;;;3.95;;
45077;SDS011;60508;42.622;25.416;2023-12-04T03:13:39;4.50;;;3.60;;
45077;SDS011;60508;42.622;25.416;2023-12-04T03:16:06;5.03;;;3.50;;
45077;SDS011;60508;42.622;25.416;2023-12-04T03:18:51;7.90;;;4.35;;
45077;SDS011;60508;42.622;25.416;2023-12-04T03:21:17;4.55;;;3.67;;
45077;SDS011;60508;42.622;25.416;2023-12-04T03:23:44;3.88;;;3.03;;
45077;SDS011;60508;42.622;25.416;2023-12-04T03:26:11;4.90;;;4.10;;
45077;SDS011;60508;42.622;25.416;2023-12-04T03:28:38;6.03;;;4.13;;
45077;SDS011;60508;42.622;25.416;2023-12-04T03:31:17;5.68;;;4.45;;
45077;SDS011;60508;42.622;25.416;2023-12-04T03:33:43;13.07;;;4.60;;
45077;SDS011;60508;42.622;25.416;2023-12-04T03:36:10;7.57;;;5.10;;
45077;SDS011;60508;42.622;25.416;2023-12-04T03:38:37;8.43;;;5.03;;
45077;SDS011;60508;42.622;25.416;2023-12-04T03:41:04;5.82;;;4.50;;
45077;SDS011;60508;42.622;25.416;2023-12-04T03:43:31;7.07;;;5.15;;
45077;SDS011;60508;42.622;25.416;2023-12-04T03:45:58;7.15;;;4.40;;
45077;SDS011;60508;42.622;25.416;2023-12-04T03:48:35;5.30;;;4.53;;
45077;SDS011;60508;42.622;25.416;2023-12-04T03:51:02;6.10;;;4.68;;
45077;SDS011;60508;42.622;25.416;2023-12-04T03:53:28;5.55;;;4.20;;
45077;SDS011;60508;42.622;25.416;2023-12-04T03:56:03;6.75;;;4.32;;
45077;SDS011;60508;42.622;25.416;2023-12-04T03:58:31;5.45;;;3.65;;
45077;SDS011;60508;42.622;25.416;2023-12-04T04:00:58;6.25;;;4.88;;
45077;SDS011;60508;42.622;25.416;2023-12-04T04:03:25;5.43;;;4.43;;
45077;SDS011;60508;42.622;25.416;2023-12-04T04:05:51;5.50;;;4.20;;
45077;SDS011;60508;42.622;25.416;2023-12-04T04:08:18;7.10;;;4.70;;
45077;SDS011;60508;42.622;25.416;2023-12-04T04:10:53;9.45;;;4.22;;
45077;SDS011;60508;42.622;25.416;2023-12-04T04:13:21;4.68;;;3.65;;
45077;SDS011;60508;42.622;25.416;2023-12-04T04:15:47;7.32;;;4.70;;
45077;SDS011;60508;42.622;25.416;2023-12-04T04:18:14;5.75;;;4.78;;
45077;SDS011;60508;42.622;25.416;2023-12-04T04:20:40;5.60;;;4.35;;
45077;SDS011;60508;42.622;25.416;2023-12-04T04:23:18;7.43;;;4.30;;
45077;SDS011;60508;42.622;25.416;2023-12-04T04:25:45;7.97;;;4.75;;
45077;SDS011;60508;42.622;25.416;2023-12-04T04:28:12;6.20;;;4.50;;
45077;SDS011;60508;42.622;25.416;2023-12-04T04:30:39;6.57;;;5.18;;
45077;SDS011;60508;42.622;25.416;2023-12-04T04:33:06;5.72;;;4.85;;
45077;SDS011;60508;42.622;25.416;2023-12-04T04:35:39;6.15;;;5.00;;
45077;SDS011;60508;42.622;25.416;2023-12-04T04:38:07;8.32;;;5.05;;
45077;SDS011;60508;42.622;25.416;2023-12-04T04:40:33;4.40;;;3.90;;
45077;SDS011;60508;42.622;25.416;2023-12-04T04:43:00;8.50;;;4.43;;
45077;SDS011;60508;42.622;25.416;2023-12-04T04:45:38;5.75;;;4.40;;
45077;SDS011;60508;42.622;25.416;2023-12-04T04:48:05;5.70;;;4.18;;
45077;SDS011;60508;42.622;25.416;2023-12-04T04:50:32;6.95;;;4.95;;
45077;SDS011;60508;42.622;25.416;2023-12-04T04:53:09;4.80;;;4.28;;
45077;SDS011;60508;42.622;25.416;2023-12-04T04:55:36;8.95;;;4.53;;
45077;SDS011;60508;42.622;25.416;2023-12-04T04:58:02;5.65;;;4.07;;
45077;SDS011;60508;42.622;25.416;2023-12-04T05:00:39;8.95;;;6.38;;
45077;SDS011;60508;42.622;25.416;2023-12-04T05:03:06;9.15;;;6.65;;
45077;SDS011;60508;42.622;25.416;2023-12-04T05:05:32;6.03;;;4.45;;
45077;SDS011;60508;42.622;25.416;2023-12-04T05:08:07;5.40;;;4.40;;
45077;SDS011;60508;42.622;25.416;2023-12-04T05:10:33;6.78;;;4.35;;
45077;SDS011;60508;42.622;25.416;2023-12-04T05:13:00;6.00;;;3.92;;
45077;SDS011;60508;42.622;25.416;2023-12-04T05:15:27;6.60;;;4.78;;
45077;SDS011;60508;42.622;25.416;2023-12-04T05:18:05;5.70;;;4.35;;
45077;SDS011;60508;42.622;25.416;2023-12-04T05:20:32;6.82;;;4.60;;
45077;SDS011;60508;42.622;25.416;2023-12-04T05:22:58;6.15;;;4.82;;
45077;SDS011;60508;42.622;25.416;2023-12-04T05:25:26;6.97;;;4.70;;
45077;SDS011;60508;42.622;25.416;2023-12-04T05:27:57;7.78;;;5.38;;
45077;SDS011;60508;42.622;25.416;2023-12-04T05:30:34;6.07;;;5.00;;
45077;SDS011;60508;42.622;25.416;2023-12-04T05:33:01;7.07;;;4.88;;
45077;SDS011;60508;42.622;25.416;2023-12-04T05:35:28;6.22;;;4.13;;
45077;SDS011;60508;42.622;25.416;2023-12-04T05:37:55;6.60;;;4.85;;
45077;SDS011;60508;42.622;25.416;2023-12-04T05:40:26;6.07;;;4.25;;
45077;SDS011;60508;42.622;25.416;2023-12-04T05:42:53;5.18;;;4.50;;
45077;SDS011;60508;42.622;25.416;2023-12-04T05:45:30;5.13;;;3.83;;
45077;SDS011;60508;42.622;25.416;2023-12-04T05:47:57;10.73;;;4.38;;
45077;SDS011;60508;42.622;25.416;2023-12-04T05:50:24;6.72;;;4.95;;
45077;SDS011;60508;42.622;25.416;2023-12-04T05:52:51;5.20;;;4.15;;
45077;SDS011;60508;42.622;25.416;2023-12-04T05:55:18;5.15;;;3.85;;
45077;SDS011;60508;42.622;25.416;2023-12-04T05:57:44;7.55;;;4.30;;
45077;SDS011;60508;42.622;25.416;2023-12-04T06:00:11;9.25;;;5.00;;
45077;SDS011;60508;42.622;25.416;2023-12-04T06:02:49;6.78;;;4.97;;
45077;SDS011;60508;42.622;25.416;2023-12-04T06:05:15;7.35;;;5.43;;
45077;SDS011;60508;42.622;25.416;2023-12-04T06:07:42;5.97;;;5.10;;
45077;SDS011;60508;42.622;25.416;2023-12-04T06:10:17;5.07;;;4.43;;
45077;SDS011;60508;42.622;25.416;2023-12-04T06:12:44;6.75;;;5.25;;
45077;SDS011;60508;42.622;25.416;2023-12-04T06:15:10;6.68;;;5.07;;
45077;SDS011;60508;42.622;25.416;2023-12-04T06:17:48;8.98;;;5.95;;
45077;SDS011;60508;42.622;25.416;2023-12-04T06:20:15;7.22;;;5.70;;
45077;SDS011;60508;42.622;25.416;2023-12-04T06:22:42;9.65;;;6.72;;
45077;SDS011;60508;42.622;25.416;2023-12-04T06:25:19;8.20;;;5.40;;
45077;SDS011;60508;42.622;25.416;2023-12-04T06:27:46;6.13;;;5.05;;
45077;SDS011;60508;42.622;25.416;2023-12-04T06:30:13;7.90;;;6.35;;
45077;SDS011;60508;42.622;25.416;2023-12-04T06:32:51;10.65;;;8.05;;
45077;SDS011;60508;42.622;25.416;2023-12-04T06:35:18;12.13;;;8.43;;
45077;SDS011;60508;42.622;25.416;2023-12-04T06:37:45;12.50;;;8.05;;
45077;SDS011;60508;42.622;25.416;2023-12-04T06:40:16;16.23;;;12.45;;
45077;SDS011;60508;42.622;25.416;2023-12-04T06:42:43;9.90;;;6.53;;
45077;SDS011;60508;42.622;25.416;2023-12-04T06:45:10;10.43;;;6.32;;
45077;SDS011;60508;42.622;25.416;2023-12-04T06:47:37;7.85;;;6.55;;
45077;SDS011;60508;42.622;25.416;2023-12-04T06:50:08;11.98;;;7.25;;
45077;SDS011;60508;42.622;25.416;2023-12-04T06:52:35;7.68;;;5.47;;
45077;SDS011;60508;42.622;25.416;2023-12-04T06:55:02;9.18;;;6.50;;
45077;SDS011;60508;42.622;25.416;2023-12-04T06:57:29;9.48;;;6.07;;
45077;SDS011;60508;42.622;25.416;2023-12-04T07:00:15;6.20;;;5.28;;
45077;SDS011;60508;42.622;25.416;2023-12-04T07:02:42;9.70;;;5.68;;
45077;SDS011;60508;42.622;25.416;2023-12-04T07:05:09;10.43;;;7.05;;
45077;SDS011;60508;42.622;25.416;2023-12-04T07:07:36;11.88;;;7.47;;
45077;SDS011;60508;42.622;25.416;2023-12-04T07:10:02;10.40;;;6.78;;
45077;SDS011;60508;42.622;25.416;2023-12-04T07:12:29;15.05;;;8.30;;
45077;SDS011;60508;42.622;25.416;2023-12-04T07:15:16;41.67;;;18.08;;
45077;SDS011;60508;42.622;25.416;2023-12-04T07:17:43;19.75;;;8.98;;
45077;SDS011;60508;42.622;25.416;2023-12-04T07:20:29;23.33;;;12.50;;
45077;SDS011;60508;42.622;25.416;2023-12-04T07:22:56;19.50;;;10.30;;
45077;SDS011;60508;42.622;25.416;2023-12-04T07:25:24;23.92;;;10.73;;
45077;SDS011;60508;42.622;25.416;2023-12-04T07:27:51;10.48;;;6.90;;
45077;SDS011;60508;42.622;25.416;2023-12-04T07:30:17;14.52;;;7.70;;
45077;SDS011;60508;42.622;25.416;2023-12-04T07:32:44;11.02;;;6.43;;
45077;SDS011;60508;42.622;25.416;2023-12-04T07:35:32;10.43;;;7.15;;
45077;SDS011;60508;42.622;25.416;2023-12-04T07:37:58;9.43;;;6.50;;
45077;SDS011;60508;42.622;25.416;2023-12-04T07:40:25;12.77;;;7.43;;
45077;SDS011;60508;42.622;25.416;2023-12-04T07:42:52;12.68;;;7.63;;
45077;SDS011;60508;42.622;25.416;2023-12-04T07:45:39;4.95;;;4.43;;
45077;SDS011;60508;42.622;25.416;2023-12-04T07:48:06;5.10;;;4.45;;
45077;SDS011;60508;42.622;25.416;2023-12-04T07:50:52;9.75;;;7.00;;
45077;SDS011;60508;42.622;25.416;2023-12-04T07:53:19;6.43;;;4.80;;
45077;SDS011;60508;42.622;25.416;2023-12-04T07:55:46;8.45;;;5.53;;
45077;SDS011;60508;42.622;25.416;2023-12-04T07:58:34;10.50;;;6.57;;
45077;SDS011;60508;42.622;25.416;2023-12-04T08:01:01;14.95;;;8.05;;
45077;SDS011;60508;42.622;25.416;2023-12-04T08:03:30;13.18;;;7.20;;
45077;SDS011;60508;42.622;25.416;2023-12-04T08:06:17;17.25;;;11.20;;
45077;SDS011;60508;42.622;25.416;2023-12-04T08:08:45;10.82;;;8.55;;
45077;SDS011;60508;42.622;25.416;2023-12-04T08:11:11;14.07;;;10.38;;
45077;SDS011;60508;42.622;25.416;2023-12-04T08:13:39;19.00;;;14.05;;
45077;SDS011;60508;42.622;25.416;2023-12-04T08:16:12;26.30;;;17.10;;
45077;SDS011;60508;42.622;25.416;2023-12-04T08:18:41;13.50;;;9.55;;
45077;SDS011;60508;42.622;25.416;2023-12-04T08:21:07;6.40;;;5.20;;
45077;SDS011;60508;42.622;25.416;2023-12-04T08:23:35;8.00;;;5.50;;
45077;SDS011;60508;42.622;25.416;2023-12-04T08:26:02;8.40;;;5.55;;
45077;SDS011;60508;42.622;25.416;2023-12-04T08:28:49;9.45;;;6.50;;
45077;SDS011;60508;42.622;25.416;2023-12-04T08:31:16;10.45;;;7.32;;
45077;SDS011;60508;42.622;25.416;2023-12-04T08:34:03;9.55;;;5.72;;
45077;SDS011;60508;42.622;25.416;2023-12-04T08:36:30;8.77;;;5.72;;
45077;SDS011;60508;42.622;25.416;2023-12-04T08:39:04;6.65;;;5.40;;
45077;SDS011;60508;42.622;25.416;2023-12-04T08:41:37;5.10;;;4.53;;
45077;SDS011;60508;42.622;25.416;2023-12-04T08:44:04;5.20;;;4.45;;
45077;SDS011;60508;42.622;25.416;2023-12-04T08:46:31;6.55;;;4.70;;
45077;SDS011;60508;42.622;25.416;2023-12-04T08:48:57;5.88;;;4.22;;
45077;SDS011;60508;42.622;25.416;2023-12-04T08:51:24;7.53;;;4.70;;
45077;SDS011;60508;42.622;25.416;2023-12-04T08:54:10;7.55;;;5.95;;
45077;SDS011;60508;42.622;25.416;2023-12-04T08:56:37;11.75;;;7.25;;
45077;SDS011;60508;42.622;25.416;2023-12-04T08:59:04;5.93;;;4.78;;
45077;SDS011;60508;42.622;25.416;2023-12-04T09:01:51;11.55;;;6.18;;
45077;SDS011;60508;42.622;25.416;2023-12-04T09:04:17;10.85;;;5.90;;
45077;SDS011;60508;42.622;25.416;2023-12-04T09:06:44;10.10;;;6.43;;
45077;SDS011;60508;42.622;25.416;2023-12-04T09:09:11;8.02;;;5.38;;
45077;SDS011;60508;42.622;25.416;2023-12-04T09:11:58;8.32;;;5.10;;
45077;SDS011;60508;42.622;25.416;2023-12-04T09:14:25;14.63;;;9.38;;
45077;SDS011;60508;42.622;25.416;2023-12-04T09:16:54;6.75;;;5.13;;
45077;SDS011;60508;42.622;25.416;2023-12-04T09:19:20;11.77;;;8.27;;
45077;SDS011;60508;42.622;25.416;2023-12-04T09:21:47;8.38;;;6.60;;
45077;SDS011;60508;42.622;25.416;2023-12-04T09:24:34;11.35;;;6.20;;
45077;SDS011;60508;42.622;25.416;2023-12-04T09:27:00;8.38;;;5.82;;
45077;SDS011;60508;42.622;25.416;2023-12-04T09:29:27;7.85;;;6.35;;
45077;SDS011;60508;42.622;25.416;2023-12-04T09:31:54;10.52;;;7.60;;
45077;SDS011;60508;42.622;25.416;2023-12-04T09:34:21;8.95;;;7.07;;
45077;SDS011;60508;42.622;25.416;2023-12-04T09:36:48;18.50;;;12.57;;
45077;SDS011;60508;42.622;25.416;2023-12-04T09:39:15;12.38;;;9.20;;
45077;SDS011;60508;42.622;25.416;2023-12-04T09:41:42;16.63;;;8.48;;
45077;SDS011;60508;42.622;25.416;2023-12-04T09:44:10;11.90;;;7.38;;
45077;SDS011;60508;42.622;25.416;2023-12-04T09:46:37;13.77;;;9.05;;
45077;SDS011;60508;42.622;25.416;2023-12-04T09:49:04;10.50;;;7.05;;
45077;SDS011;60508;42.622;25.416;2023-12-04T09:51:32;12.55;;;8.57;;
45077;SDS011;60508;42.622;25.416;2023-12-04T09:53:59;8.75;;;6.35;;
45077;SDS011;60508;42.622;25.416;2023-12-04T09:56:50;8.50;;;6.82;;
45077;SDS011;60508;42.622;25.416;2023-12-04T09:59:17;12.27;;;6.75;;
45077;SDS011;60508;42.622;25.416;2023-12-04T10:02:04;11.30;;;7.43;;
45077;SDS011;60508;42.622;25.416;2023-12-04T10:04:31;11.70;;;6.63;;
45077;SDS011;60508;42.622;25.416;2023-12-04T10:06:58;9.45;;;6.53;;
45077;SDS011;60508;42.622;25.416;2023-12-04T10:09:25;11.23;;;6.97;;
45077;SDS011;60508;42.622;25.416;2023-12-04T10:11:53;7.07;;;5.25;;
45077;SDS011;60508;42.622;25.416;2023-12-04T10:14:22;12.48;;;7.55;;
45077;SDS011;60508;42.622;25.416;2023-12-04T10:16:49;9.13;;;6.07;;
45077;SDS011;60508;42.622;25.416;2023-12-04T10:19:39;8.32;;;6.85;;
45077;SDS011;60508;42.622;25.416;2023-12-04T10:22:06;11.13;;;5.88;;
45077;SDS011;60508;42.622;25.416;2023-12-04T10:24:39;11.43;;;7.10;;
45077;SDS011;60508;42.622;25.416;2023-12-04T10:27:06;7.95;;;4.65;;
45077;SDS011;60508;42.622;25.416;2023-12-04T10:29:41;10.77;;;5.93;;
45077;SDS011;60508;42.622;25.416;2023-12-04T10:32:13;17.45;;;7.47;;
45077;SDS011;60508;42.622;25.416;2023-12-04T10:34:44;14.82;;;7.13;;
45077;SDS011;60508;42.622;25.416;2023-12-04T10:37:11;9.60;;;5.78;;
45077;SDS011;60508;42.622;25.416;2023-12-04T10:39:48;7.78;;;4.97;;
45077;SDS011;60508;42.622;25.416;2023-12-04T10:42:36;8.90;;;6.15;;
45077;SDS011;60508;42.622;25.416;2023-12-04T10:45:03;10.93;;;6.72;;
45077;SDS011;60508;42.622;25.416;2023-12-04T10:47:32;18.70;;;8.98;;
45077;SDS011;60508;42.622;25.416;2023-12-04T10:50:20;12.47;;;6.67;;
45077;SDS011;60508;42.622;25.416;2023-12-04T10:52:48;10.30;;;6.45;;
45077;SDS011;60508;42.622;25.416;2023-12-04T10:55:35;5.97;;;4.88;;
45077;SDS011;60508;42.622;25.416;2023-12-04T10:58:10;21.33;;;11.05;;
45077;SDS011;60508;42.622;25.416;2023-12-04T11:00:47;11.23;;;6.40;;
45077;SDS011;60508;42.622;25.416;2023-12-04T11:03:36;13.35;;;9.25;;
45077;SDS011;60508;42.622;25.416;2023-12-04T11:06:10;11.70;;;6.75;;
45077;SDS011;60508;42.622;25.416;2023-12-04T11:08:39;16.38;;;11.38;;
45077;SDS011;60508;42.622;25.416;2023-12-04T11:11:10;11.65;;;7.65;;
45077;SDS011;60508;42.622;25.416;2023-12-04T11:13:42;10.30;;;7.35;;
45077;SDS011;60508;42.622;25.416;2023-12-04T11:19:12;8.13;;;5.82;;
45077;SDS011;60508;42.622;25.416;2023-12-04T11:21:45;7.40;;;5.55;;
45077;SDS011;60508;42.622;25.416;2023-12-04T11:24:12;8.98;;;4.80;;
45077;SDS011;60508;42.622;25.416;2023-12-04T11:26:59;7.72;;;5.57;;
45077;SDS011;60508;42.622;25.416;2023-12-04T11:29:29;10.55;;;6.15;;
45077;SDS011;60508;42.622;25.416;2023-12-04T11:32:16;9.40;;;6.57;;
45077;SDS011;60508;42.622;25.416;2023-12-04T11:34:50;7.50;;;5.43;;
45077;SDS011;60508;42.622;25.416;2023-12-04T11:37:19;7.32;;;5.93;;
45077;SDS011;60508;42.622;25.416;2023-12-04T11:39:47;8.07;;;6.57;;
45077;SDS011;60508;42.622;25.416;2023-12-04T11:42:18;4.95;;;4.18;;
45077;SDS011;60508;42.622;25.416;2023-12-04T11:44:56;7.65;;;5.25;;
45077;SDS011;60508;42.622;25.416;2023-12-04T11:47:25;7.18;;;4.97;;
45077;SDS011;60508;42.622;25.416;2023-12-04T11:52:41;7.97;;;5.97;;
45077;SDS011;60508;42.622;25.416;2023-12-04T11:55:28;10.02;;;5.55;;
45077;SDS011;60508;42.622;25.416;2023-12-04T11:57:56;6.33;;;4.67;;
45077;SDS011;60508;42.622;25.416;2023-12-04T12:00:23;10.50;;;5.90;;
45077;SDS011;60508;42.622;25.416;2023-12-04T12:05:41;9.27;;;5.25;;
45077;SDS011;60508;42.622;25.416;2023-12-04T12:08:08;10.10;;;4.25;;
45077;SDS011;60508;42.622;25.416;2023-12-04T12:10:35;6.18;;;4.38;;
45077;SDS011;60508;42.622;25.416;2023-12-04T12:13:23;9.20;;;5.32;;
45077;SDS011;60508;42.622;25.416;2023-12-04T12:15:52;9.10;;;5.85;;
45077;SDS011;60508;42.622;25.416;2023-12-04T12:18:40;17.85;;;8.57;;
45077;SDS011;60508;42.622;25.416;2023-12-04T12:21:07;12.40;;;7.03;;
45077;SDS011;60508;42.622;25.416;2023-12-04T12:23:34;27.88;;;11.23;;
45077;SDS011;60508;42.622;25.416;2023-12-04T12:26:01;23.15;;;11.00;;
45077;SDS011;60508;42.622;25.416;2023-12-04T12:28:28;20.33;;;11.27;;
45077;SDS011;60508;42.622;25.416;2023-12-04T12:30:56;13.63;;;8.10;;
45077;SDS011;60508;42.622;25.416;2023-12-04T12:33:22;13.75;;;8.00;;
45077;SDS011;60508;42.622;25.416;2023-12-04T12:36:10;24.13;;;13.50;;
45077;SDS011;60508;42.622;25.416;2023-12-04T12:38:37;15.13;;;9.38;;
45077;SDS011;60508;42.622;25.416;2023-12-04T12:41:05;10.50;;;7.18;;
45077;SDS011;60508;42.622;25.416;2023-12-04T12:43:53;10.35;;;8.20;;
45077;SDS011;60508;42.622;25.416;2023-12-04T12:46:22;8.55;;;5.70;;
45077;SDS011;60508;42.622;25.416;2023-12-04T12:48:57;10.93;;;5.97;;
45077;SDS011;60508;42.622;25.416;2023-12-04T12:51:34;9.00;;;5.40;;
45077;SDS011;60508;42.622;25.416;2023-12-04T12:54:01;7.97;;;5.70;;
45077;SDS011;60508;42.622;25.416;2023-12-04T12:56:28;8.80;;;4.40;;
45077;SDS011;60508;42.622;25.416;2023-12-04T12:59:15;6.63;;;4.10;;
45077;SDS011;60508;42.622;25.416;2023-12-04T13:01:42;13.05;;;7.22;;
45077;SDS011;60508;42.622;25.416;2023-12-04T13:04:41;7.05;;;4.95;;
45077;SDS011;60508;42.622;25.416;2023-12-04T13:07:08;9.10;;;4.63;;
45077;SDS011;60508;42.622;25.416;2023-12-04T13:09:35;6.20;;;4.15;;
45077;SDS011;60508;42.622;25.416;2023-12-04T13:12:05;6.38;;;4.45;;
45077;SDS011;60508;42.622;25.416;2023-12-04T13:14:53;4.80;;;3.85;;
45077;SDS011;60508;42.622;25.416;2023-12-04T13:17:20;6.18;;;4.13;;
45077;SDS011;60508;42.622;25.416;2023-12-04T13:19:47;14.93;;;4.15;;
45077;SDS011;60508;42.622;25.416;2023-12-04T13:22:14;6.22;;;5.07;;
45077;SDS011;60508;42.622;25.416;2023-12-04T13:24:40;8.73;;;5.45;;
45077;SDS011;60508;42.622;25.416;2023-12-04T13:27:27;8.18;;;5.22;;
45077;SDS011;60508;42.622;25.416;2023-12-04T13:29:55;5.65;;;4.50;;
45077;SDS011;60508;42.622;25.416;2023-12-04T13:32:42;13.57;;;8.90;;
45077;SDS011;60508;42.622;25.416;2023-12-04T13:35:08;4.50;;;3.63;;
45077;SDS011;60508;42.622;25.416;2023-12-04T13:37:36;5.38;;;4.35;;
45077;SDS011;60508;42.622;25.416;2023-12-04T13:40:24;6.72;;;5.30;;
45077;SDS011;60508;42.622;25.416;2023-12-04T13:42:54;6.65;;;5.15;;
45077;SDS011;60508;42.622;25.416;2023-12-04T13:45:59;5.07;;;4.05;;
45077;SDS011;60508;42.622;25.416;2023-12-04T13:48:27;6.35;;;4.28;;
45077;SDS011;60508;42.622;25.416;2023-12-04T13:51:14;10.60;;;5.60;;
45077;SDS011;60508;42.622;25.416;2023-12-04T13:53:41;6.22;;;4.55;;
45077;SDS011;60508;42.622;25.416;2023-12-04T13:56:11;6.15;;;5.13;;
45077;SDS011;60508;42.622;25.416;2023-12-04T13:59:09;8.15;;;5.43;;
45077;SDS011;60508;42.622;25.416;2023-12-04T14:01:44;11.90;;;4.75;;
45077;SDS011;60508;42.622;25.416;2023-12-04T14:04:11;7.38;;;4.63;;
45077;SDS011;60508;42.622;25.416;2023-12-04T14:06:38;10.35;;;7.63;;
45077;SDS011;60508;42.622;25.416;2023-12-04T14:09:24;16.38;;;7.55;;
45077;SDS011;60508;42.622;25.416;2023-12-04T14:11:52;25.23;;;11.25;;
45077;SDS011;60508;42.622;25.416;2023-12-04T14:14:19;15.50;;;8.65;;
45077;SDS011;60508;42.622;25.416;2023-12-04T14:17:06;9.38;;;7.50;;
45077;SDS011;60508;42.622;25.416;2023-12-04T14:19:35;24.40;;;7.40;;
45077;SDS011;60508;42.622;25.416;2023-12-04T14:22:02;12.00;;;7.72;;
45077;SDS011;60508;42.622;25.416;2023-12-04T14:24:29;9.35;;;7.28;;
45077;SDS011;60508;42.622;25.416;2023-12-04T14:26:56;20.27;;;9.65;;
45077;SDS011;60508;42.622;25.416;2023-12-04T14:29:22;10.57;;;7.45;;
45077;SDS011;60508;42.622;25.416;2023-12-04T14:31:49;12.88;;;8.63;;
45077;SDS011;60508;42.622;25.416;2023-12-04T14:34:36;13.32;;;8.50;;
45077;SDS011;60508;42.622;25.416;2023-12-04T14:37:03;8.82;;;6.85;;
45077;SDS011;60508;42.622;25.416;2023-12-04T14:39:31;7.75;;;6.30;;
45077;SDS011;60508;42.622;25.416;2023-12-04T14:41:58;11.20;;;7.32;;
45077;SDS011;60508;42.622;25.416;2023-12-04T14:44:24;9.35;;;6.82;;
45077;SDS011;60508;42.622;25.416;2023-12-04T14:46:51;12.13;;;8.30;;
45077;SDS011;60508;42.622;25.416;2023-12-04T14:49:38;6.75;;;5.05;;
45077;SDS011;60508;42.622;25.416;2023-12-04T14:52:09;9.98;;;6.18;;
45077;SDS011;60508;42.622;25.416;2023-12-04T14:54:37;7.85;;;5.30;;
45077;SDS011;60508;42.622;25.416;2023-12-04T14:57:18;9.52;;;5.70;;
45077;SDS011;60508;42.622;25.416;2023-12-04T15:00:26;9.65;;;6.70;;
45077;SDS011;60508;42.622;25.416;2023-12-04T15:03:11;7.03;;;5.28;;